Terminal Aerodrome Forecast
Issued by NWS Wilmington, NC

Home | Current Version | Previous Version | Text Only | Print | Product List | Glossary On
Versions: 1 2 3 4 5 6 7 8 9 10 11 12 13 14 15 16 17
575
FTUS42 KILM 271010 AAB
TAFFLO
TAF AMD
KFLO 271010Z 2710/2806 20003KT P6SM BKN080
     FM280000 20005KT P6SM SCT025
     FM280400 18005KT P6SM SCT003=

USA.gov is the U.S. government's official web portal to all federal, state and local government web resources and services.